createdAt,value
2019-02-24T00:00:38.161Z,5.02
2019-02-24T00:03:05.422Z,5.02
2019-02-24T00:05:32.776Z,5.02
2019-02-24T00:08:00.064Z,5.01
2019-02-24T00:10:27.403Z,5.01
2019-02-24T00:12:54.803Z,5.00
2019-02-24T00:15:22.058Z,4.95
2019-02-24T00:17:49.374Z,4.94
2019-02-24T00:20:16.657Z,4.92
2019-02-24T00:22:43.946Z,4.91
2019-02-24T00:25:11.295Z,4.90
2019-02-24T00:27:38.550Z,4.89
2019-02-24T00:30:05.958Z,4.88
2019-02-24T00:32:34.476Z,4.85
2019-02-24T00:35:01.852Z,4.81
2019-02-24T00:37:29.172Z,4.79
2019-02-24T00:39:56.421Z,4.76
2019-02-24T00:42:23.670Z,4.74
2019-02-24T00:44:50.965Z,4.72
2019-02-24T00:47:18.317Z,4.69
2019-02-24T00:49:45.616Z,4.67
2019-02-24T00:52:12.851Z,4.67
2019-02-24T00:54:40.160Z,4.65
2019-02-24T00:57:07.400Z,4.65
2019-02-24T00:59:34.639Z,4.63
2019-02-24T01:02:01.929Z,4.60
2019-02-24T01:04:29.189Z,4.55
2019-02-24T01:06:56.454Z,4.48
2019-02-24T01:09:23.865Z,4.41
2019-02-24T01:11:51.119Z,4.34
2019-02-24T01:14:18.362Z,4.33
2019-02-24T01:16:46.067Z,4.28
2019-02-24T01:19:13.323Z,4.27
2019-02-24T01:21:40.651Z,4.24
2019-02-24T01:24:07.925Z,4.23
2019-02-24T01:26:35.175Z,4.21
2019-02-24T01:29:02.464Z,4.19
2019-02-24T01:31:29.721Z,4.17
2019-02-24T01:33:57.010Z,4.16
2019-02-24T01:36:24.307Z,4.17
2019-02-24T01:38:51.570Z,4.15
2019-02-24T01:41:18.834Z,4.14
2019-02-24T01:43:46.139Z,4.15
2019-02-24T01:46:13.385Z,4.12
2019-02-24T01:48:40.689Z,4.11
2019-02-24T01:51:08.012Z,4.11
2019-02-24T01:53:35.269Z,4.12
2019-02-24T01:56:02.559Z,4.12
2019-02-24T01:58:35.170Z,4.07
2019-02-24T02:00:59.007Z,3.88
2019-02-24T02:03:26.289Z,3.96
2019-02-24T02:05:53.626Z,3.92
2019-02-24T02:08:20.916Z,3.95
2019-02-24T02:10:48.221Z,3.96
2019-02-24T02:13:15.516Z,3.97
2019-02-24T02:15:42.806Z,3.98
2019-02-24T02:18:10.056Z,3.99
2019-02-24T02:20:37.342Z,3.98
2019-02-24T02:23:04.605Z,3.98
2019-02-24T02:25:31.927Z,3.96
2019-02-24T02:27:59.204Z,3.95
2019-02-24T02:30:26.498Z,3.90
2019-02-24T02:32:53.796Z,3.87
2019-02-24T02:35:21.246Z,3.84
2019-02-24T02:37:48.553Z,3.82
2019-02-24T02:40:15.924Z,3.79
2019-02-24T02:43:01.893Z,3.78
2019-02-24T02:45:29.258Z,3.76
2019-02-24T02:47:56.516Z,3.76
2019-02-24T02:50:23.796Z,3.74
2019-02-24T02:52:51.065Z,3.72
2019-02-24T02:55:21.600Z,3.73
2019-02-24T02:57:53.248Z,3.73
2019-02-24T03:00:33.561Z,3.71
2019-02-24T03:03:00.842Z,3.71
2019-02-24T03:05:28.353Z,3.70
2019-02-24T03:08:14.286Z,3.72
2019-02-24T03:10:41.641Z,3.74
2019-02-24T03:13:09.011Z,3.70
2019-02-24T03:15:36.295Z,3.64
2019-02-24T03:18:03.541Z,3.60
2019-02-24T03:20:31.021Z,3.55
2019-02-24T03:22:58.296Z,3.51
2019-02-24T03:25:25.560Z,3.47
2019-02-24T03:27:52.940Z,3.46
2019-02-24T03:30:20.154Z,3.42
2019-02-24T03:32:47.450Z,3.42
2019-02-24T03:35:14.745Z,3.44
2019-02-24T03:37:42.072Z,3.43
2019-02-24T03:40:09.448Z,3.43
2019-02-24T03:42:36.697Z,3.43
2019-02-24T03:45:04.203Z,3.42
2019-02-24T03:47:31.531Z,3.39
2019-02-24T03:49:58.867Z,3.38
2019-02-24T03:52:26.110Z,3.36
2019-02-24T03:54:53.482Z,3.35
2019-02-24T03:57:20.741Z,3.38
2019-02-24T03:59:48.146Z,3.38
2019-02-24T04:02:15.524Z,3.36
2019-02-24T04:04:42.831Z,3.37
2019-02-24T04:07:10.106Z,3.37
2019-02-24T04:09:37.441Z,3.34
2019-02-24T04:12:04.704Z,3.33
2019-02-24T04:14:31.986Z,3.31
2019-02-24T04:16:59.285Z,3.31
2019-02-24T04:19:26.968Z,3.29
2019-02-24T04:21:55.604Z,3.21
2019-02-24T04:24:23.302Z,3.15
2019-02-24T04:26:50.593Z,3.16
2019-02-24T04:29:24.508Z,3.18
2019-02-24T04:31:47.172Z,3.19
2019-02-24T04:34:14.444Z,3.20
2019-02-24T04:36:41.766Z,3.21
2019-02-24T04:39:09.089Z,3.20
2019-02-24T04:41:36.414Z,3.19
2019-02-24T04:44:03.709Z,3.19
2019-02-24T04:46:31.131Z,3.19
2019-02-24T04:48:58.472Z,3.16
2019-02-24T04:51:25.799Z,3.16
2019-02-24T04:53:53.230Z,3.16
2019-02-24T04:56:20.480Z,3.15
2019-02-24T04:58:49.455Z,3.12
2019-02-24T05:01:16.832Z,3.13
2019-02-24T05:03:44.260Z,3.15
2019-02-24T05:06:12.219Z,3.17
2019-02-24T05:08:39.509Z,3.18
2019-02-24T05:11:06.753Z,3.18
2019-02-24T05:13:34.038Z,3.18
2019-02-24T05:16:03.855Z,3.16
2019-02-24T05:18:31.110Z,3.19
2019-02-24T05:20:58.436Z,3.20
2019-02-24T05:23:25.734Z,3.17
2019-02-24T05:25:55.766Z,3.20
2019-02-24T05:28:23.095Z,3.20
2019-02-24T05:30:50.353Z,3.19
2019-02-24T05:33:17.627Z,3.15
2019-02-24T05:35:44.969Z,3.17
2019-02-24T05:38:12.239Z,3.18
2019-02-24T05:40:39.549Z,3.17
2019-02-24T05:43:06.907Z,3.16
2019-02-24T05:45:34.189Z,3.14
2019-02-24T05:48:01.487Z,3.11
2019-02-24T05:50:32.497Z,3.09
2019-02-24T05:52:59.959Z,3.08
2019-02-24T05:55:27.375Z,3.08
2019-02-24T05:57:55.084Z,3.10
2019-02-24T06:00:22.521Z,3.08
2019-02-24T06:02:49.958Z,3.07
2019-02-24T06:05:17.400Z,3.07
2019-02-24T06:07:44.721Z,3.04
2019-02-24T06:10:12.036Z,3.02
2019-02-24T06:12:39.352Z,3.00
2019-02-24T06:15:06.739Z,2.97
2019-02-24T06:17:33.987Z,2.92
2019-02-24T06:20:01.325Z,2.86
2019-02-24T06:22:28.587Z,2.81
2019-02-24T06:24:55.867Z,2.78
2019-02-24T06:27:23.169Z,2.79
2019-02-24T06:29:50.413Z,2.82
2019-02-24T06:32:17.653Z,2.83
2019-02-24T06:34:44.954Z,2.79
2019-02-24T06:37:12.212Z,2.80
2019-02-24T06:39:39.514Z,2.75
2019-02-24T06:42:06.862Z,2.76
2019-02-24T06:44:34.123Z,2.77
2019-02-24T06:47:01.397Z,2.79
2019-02-24T06:49:28.693Z,2.81
2019-02-24T06:51:57.421Z,2.82
2019-02-24T06:54:24.726Z,2.82
2019-02-24T06:56:52.031Z,2.81
2019-02-24T06:59:19.370Z,2.80
2019-02-24T07:01:47.793Z,2.81
2019-02-24T07:04:15.141Z,2.81
2019-02-24T07:06:42.459Z,2.82
2019-02-24T07:09:09.793Z,2.83
2019-02-24T07:11:37.118Z,2.85
2019-02-24T07:14:04.395Z,2.86
2019-02-24T07:16:31.640Z,2.88
2019-02-24T07:19:00.086Z,2.89
2019-02-24T07:21:27.350Z,2.88
2019-02-24T07:23:54.728Z,2.93
2019-02-24T07:26:22.037Z,2.96
2019-02-24T07:28:49.339Z,2.97
2019-02-24T07:31:16.669Z,2.99
2019-02-24T07:33:43.966Z,3.10
2019-02-24T07:36:11.326Z,3.21
2019-02-24T07:38:38.670Z,3.33
2019-02-24T07:41:05.983Z,3.44
2019-02-24T07:43:33.301Z,3.56
2019-02-24T07:46:00.695Z,3.65
2019-02-24T07:48:28.075Z,3.75
2019-02-24T07:50:55.426Z,3.83
2019-02-24T07:53:22.754Z,3.92
2019-02-24T07:55:50.008Z,4.03
2019-02-24T07:58:17.524Z,4.07
2019-02-24T08:00:46.565Z,4.21
2019-02-24T08:03:14.040Z,4.36
2019-02-24T08:05:41.413Z,4.45
2019-02-24T08:08:16.235Z,4.53
2019-02-24T08:10:38.341Z,4.60
2019-02-24T08:13:05.600Z,4.71
2019-02-24T08:15:32.868Z,4.84
2019-02-24T08:18:01.045Z,4.77
2019-02-24T08:20:28.351Z,4.84
2019-02-24T08:22:55.595Z,4.99
2019-02-24T08:25:23.196Z,5.12
2019-02-24T08:27:50.513Z,5.08
2019-02-24T08:30:17.780Z,5.12
2019-02-24T08:32:45.026Z,5.24
2019-02-24T08:35:12.959Z,5.39
2019-02-24T08:37:40.709Z,5.60
2019-02-24T08:40:08.731Z,5.75
2019-02-24T08:42:36.069Z,5.93
2019-02-24T08:45:03.469Z,5.93
2019-02-24T08:47:30.771Z,6.08
2019-02-24T08:49:58.025Z,6.22
2019-02-24T08:52:25.364Z,6.33
2019-02-24T08:54:52.631Z,6.48
2019-02-24T08:57:19.897Z,6.74
2019-02-24T08:59:47.213Z,6.76
2019-02-24T09:02:14.473Z,6.92
2019-02-24T09:04:41.765Z,7.13
2019-02-24T09:07:09.026Z,7.37
2019-02-24T09:09:36.321Z,7.43
2019-02-24T09:12:03.618Z,7.62
2019-02-24T09:14:30.880Z,7.74
2019-02-24T09:16:58.721Z,7.83
2019-02-24T09:19:26.037Z,8.00
2019-02-24T09:21:53.391Z,7.96
2019-02-24T09:24:20.684Z,8.13
2019-02-24T09:26:47.970Z,8.30
2019-02-24T09:29:15.222Z,8.33
2019-02-24T09:31:42.527Z,8.47
2019-02-24T09:34:10.166Z,8.59
2019-02-24T09:36:40.568Z,8.59
2019-02-24T09:39:07.814Z,8.70
2019-02-24T09:41:35.229Z,8.90
2019-02-24T09:44:02.808Z,9.04
2019-02-24T09:46:30.564Z,9.04
2019-02-24T09:48:57.874Z,9.21
2019-02-24T09:51:25.206Z,9.33
2019-02-24T09:53:52.495Z,9.26
2019-02-24T09:56:19.835Z,9.47
2019-02-24T09:58:47.497Z,9.47
2019-02-24T10:01:17.802Z,9.36
2019-02-24T10:03:45.075Z,9.36
2019-02-24T10:06:12.348Z,9.75
2019-02-24T10:08:39.657Z,9.75
2019-02-24T10:11:06.923Z,9.77
2019-02-24T10:13:34.500Z,9.86
2019-02-24T10:16:02.107Z,9.95
2019-02-24T10:18:29.375Z,10.14
2019-02-24T10:20:56.652Z,10.23
2019-02-24T10:23:24.518Z,10.23
2019-02-24T10:25:52.404Z,10.09
2019-02-24T10:28:25.730Z,10.28
2019-02-24T10:31:05.198Z,10.28
2019-02-24T10:33:52.237Z,10.33
2019-02-24T10:36:42.857Z,10.33
2019-02-24T10:39:13.404Z,10.56
2019-02-24T10:41:40.952Z,10.56
2019-02-24T10:44:09.739Z,10.68
2019-02-24T10:46:37.119Z,10.76
2019-02-24T10:49:04.430Z,10.75
2019-02-24T10:51:31.764Z,10.83
2019-02-24T10:53:59.100Z,10.73
2019-02-24T10:56:26.360Z,10.94
2019-02-24T10:58:53.664Z,10.94
2019-02-24T11:01:29.312Z,10.94
2019-02-24T11:03:50.886Z,10.94
2019-02-24T11:06:18.141Z,10.98
2019-02-24T11:08:45.422Z,10.89
2019-02-24T11:11:12.679Z,10.89
2019-02-24T11:13:40.183Z,11.00
2019-02-24T11:16:07.495Z,11.06
2019-02-24T11:18:34.844Z,10.96
2019-02-24T11:21:02.188Z,11.13
2019-02-24T11:23:29.449Z,11.20
2019-02-24T11:25:56.752Z,11.18
2019-02-24T11:28:24.004Z,11.34
2019-02-24T11:30:51.272Z,11.39
2019-02-24T11:33:20.505Z,11.33
2019-02-24T11:35:47.834Z,11.30
2019-02-24T11:38:15.212Z,11.42
2019-02-24T11:40:42.688Z,11.50
2019-02-24T11:43:09.954Z,11.55
2019-02-24T11:45:37.336Z,11.61
2019-02-24T11:48:04.704Z,11.71
2019-02-24T11:50:34.705Z,11.68
2019-02-24T11:53:02.164Z,11.77
2019-02-24T11:55:29.441Z,11.87
2019-02-24T11:57:56.783Z,11.93
2019-02-24T12:00:26.713Z,12.03
2019-02-24T12:02:54.012Z,12.13
2019-02-24T12:05:21.257Z,12.16
2019-02-24T12:07:48.749Z,12.19
2019-02-24T12:10:16.014Z,12.19
2019-02-24T12:12:43.342Z,12.24
2019-02-24T12:15:11.405Z,12.23
2019-02-24T12:17:38.872Z,12.42
2019-02-24T12:20:08.401Z,12.41
2019-02-24T12:22:35.754Z,12.42
2019-02-24T12:25:03.331Z,12.45
2019-02-24T12:27:30.695Z,12.53
2019-02-24T12:29:58.043Z,12.60
2019-02-24T12:32:25.316Z,12.58
2019-02-24T12:34:52.830Z,12.71
2019-02-24T12:37:21.327Z,12.72
2019-02-24T12:39:48.606Z,12.77
2019-02-24T12:42:15.898Z,12.80
2019-02-24T12:44:45.643Z,12.89
2019-02-24T12:47:12.913Z,12.77
2019-02-24T12:49:40.369Z,12.93
2019-02-24T12:52:07.712Z,13.03
2019-02-24T12:54:36.323Z,13.07
2019-02-24T12:57:05.013Z,13.15
2019-02-24T12:59:33.415Z,13.19
2019-02-24T13:02:05.721Z,13.32
2019-02-24T13:04:29.942Z,13.30
2019-02-24T13:06:57.691Z,13.35
2019-02-24T13:09:25.114Z,13.47
2019-02-24T13:11:52.461Z,13.55
2019-02-24T13:14:19.746Z,13.53
2019-02-24T13:16:47.020Z,13.56
2019-02-24T13:19:14.418Z,13.60
2019-02-24T13:21:41.987Z,13.59
2019-02-24T13:24:09.272Z,13.63
2019-02-24T13:26:36.929Z,13.70
2019-02-24T13:29:04.303Z,13.80
2019-02-24T13:31:31.682Z,13.76
2019-02-24T13:33:59.003Z,13.78
2019-02-24T13:36:26.277Z,13.75
2019-02-24T13:38:53.543Z,13.77
2019-02-24T13:41:20.839Z,13.84
2019-02-24T13:43:48.150Z,13.85
2019-02-24T13:46:15.442Z,13.83
2019-02-24T13:48:42.698Z,13.83
2019-02-24T13:51:10.013Z,13.82
2019-02-24T13:53:38.187Z,13.83
2019-02-24T13:56:05.553Z,13.89
2019-02-24T13:58:32.827Z,13.91
2019-02-24T14:01:00.134Z,13.93
2019-02-24T14:03:27.495Z,13.93
2019-02-24T14:05:54.849Z,13.98
2019-02-24T14:08:22.152Z,13.89
2019-02-24T14:10:49.417Z,13.95
2019-02-24T14:13:16.698Z,14.01
2019-02-24T14:15:44.012Z,13.91
2019-02-24T14:18:11.308Z,13.83
2019-02-24T14:20:39.228Z,13.96
2019-02-24T14:23:06.547Z,14.01
2019-02-24T14:25:33.839Z,14.01
2019-02-24T14:28:01.239Z,13.95
2019-02-24T14:30:28.536Z,13.99
2019-02-24T14:32:56.008Z,13.83
2019-02-24T14:35:24.756Z,13.98
2019-02-24T14:37:58.478Z,13.98
2019-02-24T14:40:25.899Z,13.96
2019-02-24T14:42:53.208Z,14.01
2019-02-24T14:45:20.587Z,14.02
2019-02-24T14:47:48.759Z,14.01
2019-02-24T14:50:17.141Z,13.97
2019-02-24T14:52:44.451Z,13.94
2019-02-24T14:55:11.961Z,13.96
2019-02-24T14:57:42.713Z,13.87
2019-02-24T15:00:13.120Z,13.97
2019-02-24T15:02:42.708Z,13.97
2019-02-24T15:05:09.996Z,14.00
2019-02-24T15:07:37.273Z,14.00
2019-02-24T15:10:08.468Z,14.00
2019-02-24T15:12:35.799Z,13.93
2019-02-24T15:15:03.857Z,13.96
2019-02-24T15:17:31.998Z,13.98
2019-02-24T15:20:04.920Z,13.91
2019-02-24T15:22:32.973Z,13.91
2019-02-24T15:25:02.806Z,13.91
2019-02-24T15:27:30.162Z,13.89
2019-02-24T15:29:57.441Z,13.85
2019-02-24T15:32:24.730Z,13.39
2019-02-24T15:34:52.046Z,12.67
2019-02-24T15:37:19.405Z,12.39
2019-02-24T15:39:46.668Z,12.00
2019-02-24T15:42:14.770Z,11.44
2019-02-24T15:44:45.397Z,11.32
2019-02-24T15:47:12.675Z,11.16
2019-02-24T15:49:44.033Z,10.87
2019-02-24T15:52:15.510Z,10.53
2019-02-24T15:54:43.045Z,10.53
2019-02-24T15:57:18.413Z,10.47
2019-02-24T15:59:55.427Z,10.48
2019-02-24T16:02:26.396Z,10.49
2019-02-24T16:05:02.925Z,10.34
2019-02-24T16:07:51.265Z,10.19
2019-02-24T16:10:37.612Z,10.08
2019-02-24T16:13:16.712Z,10.05
2019-02-24T16:15:49.926Z,9.86
2019-02-24T16:18:22.559Z,9.79
2019-02-24T16:20:55.082Z,9.79
2019-02-24T16:23:22.603Z,9.73
2019-02-24T16:25:49.861Z,9.58
2019-02-24T16:28:27.264Z,9.72
2019-02-24T16:31:00.162Z,9.72
2019-02-24T16:33:31.937Z,9.82
2019-02-24T16:36:03.864Z,9.71
2019-02-24T16:38:58.390Z,9.61
2019-02-24T16:41:26.225Z,9.38
2019-02-24T16:44:27.607Z,9.51
2019-02-24T16:47:01.992Z,9.42
2019-02-24T16:49:29.428Z,9.23
2019-02-24T16:51:57.948Z,8.93
2019-02-24T16:54:28.949Z,8.93
2019-02-24T16:57:22.276Z,8.91
2019-02-24T16:59:50.871Z,8.90
2019-02-24T17:02:22.982Z,9.04
2019-02-24T17:04:52.591Z,8.84
2019-02-24T17:07:32.862Z,8.84
2019-02-24T17:10:01.466Z,8.85
2019-02-24T17:12:29.690Z,8.96
2019-02-24T17:15:00.001Z,9.08
2019-02-24T17:17:27.267Z,9.09
2019-02-24T17:22:29.711Z,9.09
2019-02-24T17:25:12.169Z,9.00
2019-02-24T17:27:44.843Z,8.98
2019-02-24T17:30:17.978Z,8.53
2019-02-24T17:32:55.056Z,8.55
2019-02-24T17:36:07.717Z,8.59
2019-02-24T17:42:32.697Z,8.45
2019-02-24T17:45:00.027Z,8.53
2019-02-24T17:47:50.932Z,8.53
2019-02-24T17:50:56.420Z,8.55
2019-02-24T17:53:23.823Z,8.50
2019-02-24T17:55:51.275Z,8.51
2019-02-24T17:58:54.169Z,8.55
2019-02-24T18:01:21.994Z,8.53
2019-02-24T18:03:49.387Z,8.53
2019-02-24T18:06:16.684Z,8.52
2019-02-24T18:08:43.991Z,8.52
2019-02-24T18:11:11.222Z,8.48
2019-02-24T18:13:38.471Z,8.44
2019-02-24T18:16:05.781Z,8.48
2019-02-24T18:18:33.024Z,8.36
2019-02-24T18:21:00.296Z,8.15
2019-02-24T18:23:27.781Z,8.02
2019-02-24T18:25:55.160Z,8.15
2019-02-24T18:28:22.855Z,8.15
2019-02-24T18:30:50.141Z,7.96
2019-02-24T18:33:17.434Z,7.82
2019-02-24T18:35:44.690Z,7.97
2019-02-24T18:38:11.972Z,8.02
2019-02-24T18:40:39.315Z,7.96
2019-02-24T18:43:06.737Z,7.83
2019-02-24T18:45:33.999Z,7.81
2019-02-24T18:48:01.311Z,7.78
2019-02-24T18:50:28.641Z,7.82
2019-02-24T18:52:55.890Z,7.82
2019-02-24T18:55:23.205Z,7.75
2019-02-24T18:57:50.460Z,7.75
2019-02-24T19:00:18.220Z,7.71
2019-02-24T19:02:45.493Z,7.39
2019-02-24T19:05:13.039Z,7.12
2019-02-24T19:07:40.366Z,7.07
2019-02-24T19:10:09.353Z,6.93
2019-02-24T19:12:36.900Z,6.97
2019-02-24T19:15:04.873Z,7.04
2019-02-24T19:17:32.138Z,6.89
2019-02-24T19:19:59.701Z,6.79
2019-02-24T19:22:26.990Z,6.91
2019-02-24T19:24:54.232Z,6.93
2019-02-24T19:27:21.685Z,6.92
2019-02-24T19:29:49.080Z,6.90
2019-02-24T19:32:16.309Z,6.86
2019-02-24T19:34:43.632Z,6.90
2019-02-24T19:37:11.169Z,6.88
2019-02-24T19:39:38.437Z,7.05
2019-02-24T19:42:05.707Z,7.14
2019-02-24T19:44:32.976Z,7.24
2019-02-24T19:47:00.215Z,7.31
2019-02-24T19:49:27.474Z,7.38
2019-02-24T19:51:54.748Z,7.45
2019-02-24T19:54:21.986Z,7.47
2019-02-24T19:56:49.252Z,7.40
2019-02-24T19:59:16.527Z,7.46
2019-02-24T20:01:43.765Z,7.53
2019-02-24T20:04:15.987Z,7.58
2019-02-24T20:06:40.199Z,7.60
2019-02-24T20:09:07.737Z,7.59
2019-02-24T20:11:34.999Z,7.55
2019-02-24T20:14:02.277Z,7.48
2019-02-24T20:16:29.517Z,7.28
2019-02-24T20:18:56.852Z,7.18
2019-02-24T20:21:24.131Z,7.21
2019-02-24T20:23:51.461Z,7.13
2019-02-24T20:26:19.831Z,7.09
2019-02-24T20:28:47.578Z,7.11
2019-02-24T20:31:14.966Z,7.13
2019-02-24T20:33:42.341Z,6.92
2019-02-24T20:36:10.049Z,6.96
2019-02-24T20:38:37.306Z,7.07
2019-02-24T20:41:04.926Z,7.11
2019-02-24T20:43:32.437Z,7.12
2019-02-24T20:45:59.707Z,7.00
2019-02-24T20:48:26.984Z,7.02
2019-02-24T20:50:54.285Z,6.93
2019-02-24T20:53:21.561Z,6.89
2019-02-24T20:55:49.024Z,6.85
2019-02-24T20:58:16.247Z,6.93
2019-02-24T21:00:43.682Z,6.94
2019-02-24T21:03:13.271Z,6.97
2019-02-24T21:05:40.599Z,6.86
2019-02-24T21:08:08.110Z,6.85
2019-02-24T21:10:35.736Z,6.92
2019-02-24T21:13:03.045Z,6.92
2019-02-24T21:15:30.294Z,6.86
2019-02-24T21:17:57.526Z,6.94
2019-02-24T21:20:26.620Z,7.01
2019-02-24T21:22:53.975Z,7.04
2019-02-24T21:25:21.265Z,7.06
2019-02-24T21:27:48.505Z,7.07
2019-02-24T21:30:16.067Z,7.08
2019-02-24T21:32:43.427Z,7.07
2019-02-24T21:35:10.928Z,7.07
2019-02-24T21:37:38.169Z,7.02
2019-02-24T21:40:05.841Z,6.97
2019-02-24T21:42:33.113Z,6.96
2019-02-24T21:45:00.338Z,6.93
2019-02-24T21:47:27.625Z,6.91
2019-02-24T21:49:54.874Z,6.91
2019-02-24T21:52:22.117Z,6.92
2019-02-24T21:54:49.404Z,6.91
2019-02-24T21:57:16.661Z,6.89
2019-02-24T21:59:43.901Z,6.88
2019-02-24T22:02:11.179Z,6.85
2019-02-24T22:04:38.427Z,6.84
2019-02-24T22:07:05.672Z,6.80
2019-02-24T22:09:32.947Z,6.70
2019-02-24T22:12:00.236Z,6.69
2019-02-24T22:14:27.512Z,6.68
2019-02-24T22:16:54.774Z,6.64
2019-02-24T22:19:22.065Z,6.59
2019-02-24T22:21:49.376Z,6.59
2019-02-24T22:24:16.661Z,6.47
2019-02-24T22:26:43.946Z,6.38
2019-02-24T22:29:11.196Z,6.32
2019-02-24T22:31:38.504Z,6.34
2019-02-24T22:34:05.761Z,6.34
2019-02-24T22:36:33.003Z,6.31
2019-02-24T22:39:00.305Z,6.30
2019-02-24T22:41:27.569Z,6.26
2019-02-24T22:43:54.871Z,6.19
2019-02-24T22:46:22.178Z,6.18
2019-02-24T22:48:49.432Z,6.18
2019-02-24T22:51:16.735Z,6.10
2019-02-24T22:53:44.015Z,6.09
2019-02-24T22:56:11.252Z,6.09
2019-02-24T22:58:38.533Z,6.06
2019-02-24T23:01:11.869Z,6.05
2019-02-24T23:03:40.960Z,6.01
2019-02-24T23:06:08.224Z,5.95
2019-02-24T23:08:35.532Z,5.96
2019-02-24T23:11:02.865Z,5.96
2019-02-24T23:13:30.104Z,5.94
2019-02-24T23:15:57.420Z,5.92
2019-02-24T23:18:24.659Z,5.92
2019-02-24T23:20:51.983Z,5.90
2019-02-24T23:23:19.261Z,5.85
2019-02-24T23:25:46.529Z,5.80
2019-02-24T23:28:13.812Z,5.80
2019-02-24T23:30:41.093Z,5.78
2019-02-24T23:33:08.406Z,5.79
2019-02-24T23:35:35.694Z,5.74
2019-02-24T23:38:03.049Z,5.67
2019-02-24T23:40:30.336Z,5.69
2019-02-24T23:42:57.588Z,5.71
2019-02-24T23:45:24.909Z,5.69
2019-02-24T23:47:52.217Z,5.69
2019-02-24T23:50:19.486Z,5.66
2019-02-24T23:52:46.758Z,5.63
2019-02-24T23:55:14.106Z,5.59
2019-02-24T23:57:41.341Z,5.58
